createdAt,value
2019-01-14T00:00:13.562Z,0.40
2019-01-14T01:02:15.443Z,0.73
2019-01-14T01:07:16.786Z,0.57
2019-01-14T01:12:18.091Z,1.33
2019-01-14T01:17:19.497Z,0.47
2019-01-14T01:22:20.877Z,0.30
2019-01-14T01:27:22.928Z,0.93
2019-01-14T02:35:46.691Z,0.93
2019-01-14T02:40:48.063Z,0.53
2019-01-14T02:45:49.363Z,0.60
2019-01-14T02:50:50.673Z,0.60
2019-01-14T02:55:53.153Z,2.03
2019-01-14T04:04:18.385Z,2.77
2019-01-14T04:09:19.685Z,1.70
2019-01-14T04:14:20.980Z,1.97
2019-01-14T04:19:22.346Z,1.73
2019-01-14T04:24:23.690Z,1.87
2019-01-14T04:29:25.033Z,1.53
2019-01-14T05:31:29.209Z,3.53
2019-01-14T05:36:30.643Z,3.83
2019-01-14T05:41:32.083Z,4.30
2019-01-14T05:46:33.596Z,3.40
2019-01-14T05:51:35.066Z,3.23
2019-01-14T05:56:37.249Z,3.37
2019-01-14T07:05:01.513Z,2.73
2019-01-14T07:10:05.663Z,2.03
2019-01-14T07:15:07.800Z,4.57
2019-01-14T07:20:09.157Z,6.17
2019-01-14T07:25:10.537Z,3.40
2019-01-14T07:30:13.678Z,1.30
2019-01-14T08:32:17.103Z,4.00
2019-01-14T08:37:18.517Z,3.40
2019-01-14T08:42:19.875Z,3.03
2019-01-14T08:47:21.193Z,3.20
2019-01-14T08:52:22.506Z,4.33
2019-01-14T08:57:23.805Z,1.57
2019-01-14T10:05:48.054Z,4.70
2019-01-14T10:10:49.364Z,4.47
2019-01-14T10:15:50.667Z,6.93
2019-01-14T10:20:52.724Z,2.77
2019-01-14T10:25:54.063Z,3.97
2019-01-14T11:34:17.677Z,4.20
2019-01-14T11:39:19.739Z,6.17
2019-01-14T11:44:21.024Z,3.80
2019-01-14T11:49:23.102Z,3.07
2019-01-14T11:54:25.170Z,2.20
2019-01-14T11:59:27.210Z,2.33
2019-01-14T13:01:32.258Z,2.87
2019-01-14T13:06:33.577Z,5.53
2019-01-14T13:11:35.629Z,6.30
2019-01-14T13:16:36.982Z,4.53
2019-01-14T13:21:38.280Z,3.37
2019-01-14T13:26:39.573Z,3.70
2019-01-14T14:35:02.905Z,0.40
2019-01-14T14:40:04.254Z,0.70
2019-01-14T14:45:07.550Z,0.97
2019-01-14T14:50:11.710Z,0.70
2019-01-14T14:55:13.031Z,1.07
2019-01-14T15:00:15.911Z,0.83
2019-01-14T16:02:20.125Z,1.03
2019-01-14T16:07:21.456Z,1.23
2019-01-14T16:12:22.745Z,1.40
2019-01-14T16:17:25.043Z,1.60
2019-01-14T16:22:27.227Z,1.63
2019-01-14T16:27:28.513Z,2.00
2019-01-14T16:32:29.819Z,1.57
2019-01-14T16:37:31.120Z,2.33
2019-01-14T16:42:32.436Z,1.50
2019-01-14T16:47:33.733Z,1.80
2019-01-14T16:52:35.028Z,1.77
2019-01-14T16:57:36.348Z,1.77
2019-01-14T17:02:37.655Z,1.40
2019-01-14T17:07:39.708Z,1.73
2019-01-14T17:12:41.088Z,1.47
2019-01-14T17:17:42.408Z,2.27
2019-01-14T17:22:43.695Z,1.90
2019-01-14T17:27:45.338Z,2.47
2019-01-14T17:32:48.723Z,1.37
2019-01-14T17:37:50.036Z,4.50
2019-01-14T17:42:51.552Z,3.67
2019-01-14T17:47:53.648Z,1.60
2019-01-14T17:52:55.142Z,2.37
2019-01-14T17:57:56.737Z,1.60
2019-01-14T18:02:58.803Z,1.50
2019-01-14T18:08:00.895Z,1.93
2019-01-14T18:13:04.100Z,2.70
2019-01-14T18:18:11.339Z,2.00
2019-01-14T18:23:13.416Z,1.87
2019-01-14T18:28:15.457Z,3.87
2019-01-14T18:33:16.769Z,2.67
2019-01-14T18:38:18.897Z,2.83
2019-01-14T18:43:21.696Z,3.63
2019-01-14T18:48:23.164Z,3.67
2019-01-14T18:53:28.499Z,3.03
2019-01-14T18:58:33.104Z,2.67
2019-01-14T19:03:49.390Z,2.53
2019-01-14T19:08:56.119Z,3.87
2019-01-14T19:14:00.447Z,3.43
2019-01-14T19:19:05.080Z,2.87
2019-01-14T19:24:07.436Z,2.57
2019-01-14T19:29:08.851Z,5.30
2019-01-14T19:34:16.068Z,2.37
2019-01-14T19:39:18.487Z,3.93
2019-01-14T19:44:19.880Z,3.20
2019-01-14T19:49:21.260Z,4.23
2019-01-14T19:54:27.269Z,5.40
2019-01-14T19:59:32.236Z,5.47
2019-01-14T20:04:40.499Z,5.43
2019-01-14T20:09:42.622Z,3.00
2019-01-14T20:14:52.110Z,6.53
2019-01-14T20:19:53.866Z,4.33
2019-01-14T20:24:55.236Z,4.83
2019-01-14T20:29:56.601Z,4.27
2019-01-14T20:35:00.205Z,6.17
2019-01-14T20:40:04.206Z,7.77
2019-01-14T20:45:08.764Z,3.90
2019-01-14T20:50:10.419Z,6.17
2019-01-14T20:55:11.859Z,4.80
2019-01-14T21:00:16.254Z,5.87
2019-01-14T21:05:17.632Z,4.03
2019-01-14T21:10:20.088Z,4.97
2019-01-14T21:15:25.122Z,5.27
2019-01-14T21:20:29.408Z,3.97
2019-01-14T21:25:34.510Z,4.73
2019-01-14T21:30:35.916Z,5.57
2019-01-14T21:35:37.268Z,6.93
2019-01-14T21:40:38.614Z,5.80
2019-01-14T21:45:39.977Z,6.27
2019-01-14T21:50:41.288Z,7.93
2019-01-14T21:55:42.608Z,6.50
2019-01-14T22:00:43.979Z,3.93
2019-01-14T22:05:47.418Z,5.23
2019-01-14T22:10:48.903Z,5.80
2019-01-14T22:15:51.093Z,5.47
2019-01-14T22:20:58.797Z,5.83
2019-01-14T22:26:04.424Z,5.50
2019-01-14T22:31:07.905Z,5.00
2019-01-14T22:36:09.234Z,7.03
2019-01-14T22:41:10.671Z,7.53
2019-01-14T22:46:12.035Z,4.37
2019-01-14T22:51:13.550Z,4.90
2019-01-14T22:56:19.067Z,4.50
2019-01-14T23:33:01.680Z,2.80
2019-01-14T23:38:02.993Z,5.30
2019-01-14T23:43:04.324Z,2.67
2019-01-14T23:48:06.424Z,5.00
2019-01-14T23:53:07.747Z,3.47
2019-01-14T23:58:09.086Z,4.93
